Time;durP1;ratioP1;P1;durP2;ratioP2;P2;SDS_P1;SDS_P2;PMS_P1;PMS_P2;Temp;Humidity;BMP_temperature;BMP_pressure;BME280_temperature;BME280_humidity;BME280_pressure;Samples;Min_cycle;Max_cycle;Signal;HPM_P1;HPM_P2
2022/05/11 00:03:44;;;;;;;2.25;1.80;;;;;17.60;100885.00;;;;9980401;29;20290;-80
2022/05/11 00:08:46;;;;;;;3.55;2.00;;;;;17.60;100876.00;;;;9996559;29;20201;-81
2022/05/11 00:13:48;;;;;;;2.85;1.55;;;;;17.50;100871.00;;;;9981180;29;20266;-81
2022/05/11 00:18:50;;;;;;;1.10;0.98;;;;;17.50;100867.00;;;;10010439;29;20193;-81
2022/05/11 00:23:53;;;;;;;3.13;1.48;;;;;17.50;100851.00;;;;9966302;29;20198;-81
2022/05/11 00:28:55;;;;;;;1.60;1.10;;;;;17.50;100849.00;;;;9963315;29;20710;-81
2022/05/11 00:33:58;;;;;;;2.20;1.20;;;;;17.50;100843.00;;;;9959497;29;20218;-80
2022/05/11 00:39:00;;;;;;;2.00;0.90;;;;;17.40;100834.00;;;;9973975;29;20205;-80
2022/05/11 00:44:04;;;;;;;2.28;1.30;;;;;17.40;100830.00;;;;9963367;29;20198;-81
2022/05/11 00:54:38;;;;;;;1.73;1.10;;;;;17.30;100827.00;;;;9982357;29;20588;-81
2022/05/11 00:59:44;;;;;;;2.47;1.27;;;;;17.20;100822.00;;;;9989679;29;20208;-80
2022/05/11 01:04:46;;;;;;;1.53;1.30;;;;;17.20;100821.00;;;;10000262;29;20225;-81
2022/05/11 01:09:48;;;;;;;1.63;1.00;;;;;17.20;100818.00;;;;9985268;29;20202;-80
2022/05/11 01:14:53;;;;;;;3.70;1.57;;;;;17.20;100809.00;;;;10000905;29;20259;-80
2022/05/11 01:19:55;;;;;;;3.37;1.37;;;;;17.20;100806.00;;;;9996418;29;20585;-80
2022/05/11 01:24:58;;;;;;;1.17;1.08;;;;;17.20;100797.00;;;;9970392;29;20190;-81
2022/05/11 01:30:20;;;;;;;1.92;1.27;;;;;17.20;100793.00;;;;9985075;29;20214;-80
2022/05/11 01:35:37;;;;;;;2.03;0.90;;;;;17.10;100794.00;;;;9992857;29;20213;-79
2022/05/11 01:40:39;;;;;;;2.97;0.90;;;;;17.10;100793.00;;;;9985183;29;20206;-80
2022/05/11 01:45:42;;;;;;;6.73;1.10;;;;;17.00;100791.00;;;;9999590;29;20190;-80
2022/05/11 01:50:46;;;;;;;3.90;1.37;;;;;17.00;100787.00;;;;9983625;29;20226;-80
2022/05/11 01:55:49;;;;;;;1.33;1.23;;;;;16.90;100792.00;;;;9999602;29;20221;-80
2022/05/11 02:00:51;;;;;;;1.60;1.27;;;;;16.90;100790.00;;;;9984101;29;20571;-80
2022/05/11 02:11:17;;;;;;;4.70;1.40;;;;;16.80;100776.00;;;;9992434;29;20258;-80
2022/05/11 02:16:20;;;;;;;2.80;1.57;;;;;16.80;100773.00;;;;9961264;29;20217;-80
2022/05/11 02:21:22;;;;;;;3.87;2.03;;;;;16.80;100772.00;;;;9975260;29;20727;-79
2022/05/11 02:26:25;;;;;;;5.00;2.63;;;;;16.80;100767.00;;;;9998302;29;20206;-80
2022/05/11 02:31:27;;;;;;;4.00;3.23;;;;;16.80;100772.00;;;;9981863;29;20209;-80
2022/05/11 02:36:29;;;;;;;2.93;2.67;;;;;16.70;100771.00;;;;9997748;29;20218;-81
2022/05/11 02:41:31;;;;;;;3.70;2.80;;;;;16.60;100762.00;;;;9983189;29;20197;-81
2022/05/11 02:46:32;;;;;;;3.33;2.13;;;;;16.40;100767.00;;;;9996955;29;20213;-79
2022/05/11 02:51:34;;;;;;;3.43;2.40;;;;;16.40;100771.00;;;;9995798;29;20237;-80
2022/05/11 02:56:37;;;;;;;2.90;2.23;;;;;16.20;100769.00;;;;9980289;29;20634;-80
2022/05/11 03:01:38;;;;;;;2.47;2.10;;;;;16.10;100761.00;;;;9980205;29;20615;-80
2022/05/11 03:06:42;;;;;;;1.97;1.77;;;;;16.00;100759.00;;;;9980218;29;20260;-79
2022/05/11 03:11:45;;;;;;;1.97;1.70;;;;;15.80;100753.00;;;;9993949;29;20562;-81
2022/05/11 03:16:47;;;;;;;5.50;3.60;;;;;15.70;100748.00;;;;9994225;29;20227;-79
2022/05/11 03:21:50;;;;;;;9.60;4.63;;;;;15.80;100746.00;;;;9979005;29;20202;-80
2022/05/11 03:26:52;;;;;;;6.37;3.80;;;;;15.90;100739.00;;;;9996081;29;20286;-79
2022/05/11 03:37:18;;;;;;;5.67;2.77;;;;;15.90;100734.00;;;;9997620;29;20228;-80
2022/05/11 03:42:22;;;;;;;2.73;2.10;;;;;15.90;100740.00;;;;9963054;29;20671;-80
2022/05/11 03:47:24;;;;;;;3.60;2.03;;;;;15.90;100736.00;;;;9968591;29;20292;-80
2022/05/11 03:52:27;;;;;;;3.93;2.53;;;;;15.80;100733.00;;;;9997190;29;20212;-80
2022/05/11 03:57:29;;;;;;;3.40;2.07;;;;;15.70;100728.00;;;;9951309;29;20226;-80
2022/05/11 04:02:31;;;;;;;6.40;2.10;;;;;15.60;100726.00;;;;9972247;29;20259;-79
2022/05/11 04:07:33;;;;;;;4.03;1.90;;;;;15.40;100726.00;;;;9985842;29;20225;-80
2022/05/11 04:12:35;;;;;;;5.43;2.13;;;;;15.30;100723.00;;;;9991598;29;20266;-79
2022/05/11 04:17:38;;;;;;;2.40;1.43;;;;;15.20;100725.00;;;;9995972;29;20206;-80
2022/05/11 04:22:40;;;;;;;8.10;4.53;;;;;15.20;100726.00;;;;9996287;29;20627;-80
2022/05/11 04:27:46;;;;;;;2.10;1.60;;;;;15.30;100728.00;;;;9939985;29;20221;-79
2022/05/11 04:32:48;;;;;;;3.00;2.37;;;;;15.30;100723.00;;;;9962486;29;20205;-79
2022/05/11 04:37:50;;;;;;;4.07;2.23;;;;;15.30;100731.00;;;;10014940;29;20198;-80
2022/05/11 04:42:52;;;;;;;5.53;1.90;;;;;15.40;100726.00;;;;9991302;29;20209;-79
2022/05/11 04:47:54;;;;;;;2.83;2.03;;;;;15.40;100732.00;;;;9965268;29;20201;-79
2022/05/11 04:52:56;;;;;;;5.23;1.97;;;;;15.50;100738.00;;;;10000995;29;20189;-79
2022/05/11 04:57:59;;;;;;;4.20;2.43;;;;;15.70;100736.00;;;;9999136;29;20200;-80
2022/05/11 05:03:04;;;;;;;2.90;1.80;;;;;15.90;100739.00;;;;9998912;29;20221;-80
2022/05/11 05:08:08;;;;;;;4.93;2.03;;;;;16.10;100742.00;;;;9981236;29;20202;-79
2022/05/11 05:13:12;;;;;;;5.03;2.40;;;;;16.20;100749.00;;;;9998176;29;20270;-79
2022/05/11 05:18:13;;;;;;;3.03;2.07;;;;;16.40;100755.00;;;;10040063;29;20225;-79
2022/05/11 05:23:15;;;;;;;4.70;2.40;;;;;16.60;100757.00;;;;9978321;29;20234;-80
2022/05/11 05:33:39;;;;;;;6.00;2.20;;;;;17.20;100779.00;;;;9991817;29;20305;-80
2022/05/11 05:38:42;;;;;;;6.10;2.47;;;;;17.60;100776.00;;;;9986982;29;20194;-81
2022/05/11 05:43:44;;;;;;;4.97;2.43;;;;;17.90;100776.00;;;;10000228;29;20654;-81
2022/05/11 05:48:49;;;;;;;5.13;2.10;;;;;18.60;100773.00;;;;9987514;29;20285;-81
2022/05/11 05:53:51;;;;;;;4.95;2.33;;;;;19.10;100777.00;;;;10006447;29;20551;-81
2022/05/11 05:58:58;;;;;;;10.52;2.60;;;;;19.40;100768.00;;;;9998748;29;20265;-81
2022/05/11 06:04:00;;;;;;;5.32;2.30;;;;;19.50;100774.00;;;;9985312;29;20251;-81
2022/05/11 06:09:04;;;;;;;6.68;2.35;;;;;19.90;100776.00;;;;9999329;29;20266;-80
2022/05/11 06:14:06;;;;;;;5.32;1.65;;;;;20.30;100768.00;;;;10001336;29;20251;-80
2022/05/11 06:19:08;;;;;;;7.53;2.20;;;;;20.50;100774.00;;;;9981758;29;20202;-81
2022/05/11 06:24:10;;;;;;;4.05;2.08;;;;;20.50;100766.00;;;;9945125;29;20201;-80
2022/05/11 06:29:12;;;;;;;6.38;2.10;;;;;20.60;100768.00;;;;9960544;29;20726;-81
2022/05/11 06:34:15;;;;;;;5.78;1.90;;;;;20.90;100764.00;;;;9990591;29;20235;-81
2022/05/11 06:39:17;;;;;;;5.38;2.03;;;;;21.30;100760.00;;;;10012391;29;20210;-81
2022/05/11 06:44:19;;;;;;;4.97;1.77;;;;;21.50;100769.00;;;;10032645;29;20275;-80
2022/05/11 06:49:21;;;;;;;3.88;1.55;;;;;21.80;100762.00;;;;9983130;29;20225;-80
2022/05/11 06:59:44;;;;;;;4.45;1.15;;;;;22.10;100755.00;;;;9994150;29;20239;-80
2022/05/11 07:04:48;;;;;;;6.18;1.38;;;;;22.40;100758.00;;;;9986488;29;20230;-80
2022/05/11 07:09:52;;;;;;;4.13;1.45;;;;;22.30;100760.00;;;;9961208;29;20193;-81
2022/05/11 07:14:58;;;;;;;3.25;1.20;;;;;22.70;100761.00;;;;9993342;29;20213;-80
2022/05/11 07:20:02;;;;;;;4.53;1.60;;;;;23.20;100758.00;;;;9958318;29;20255;-81
2022/05/11 07:25:10;;;;;;;4.60;1.20;;;;;23.60;100758.00;;;;9995845;29;20236;-80
2022/05/11 07:30:16;;;;;;;4.40;1.30;;;;;23.90;100744.00;;;;9974356;29;20710;-81
2022/05/11 07:35:18;;;;;;;4.40;1.38;;;;;24.20;100750.00;;;;9990955;29;20248;-81
2022/05/11 07:40:21;;;;;;;3.83;1.48;;;;;24.20;100761.00;;;;9980087;29;20201;-81
2022/05/11 07:45:23;;;;;;;8.95;1.83;;;;;24.50;100748.00;;;;9981025;29;20201;-81
2022/05/11 07:50:26;;;;;;;5.10;1.02;;;;;24.90;100754.00;;;;9941927;29;20665;-80
2022/05/11 07:55:28;;;;;;;6.82;1.33;;;;;25.10;100753.00;;;;9971250;29;20214;-81
2022/05/11 08:00:30;;;;;;;1.80;1.10;;;;;25.20;100745.00;;;;9983498;29;20202;-80
2022/05/11 08:05:32;;;;;;;9.43;1.60;;;;;25.50;100744.00;;;;9993372;29;20232;-80
2022/05/11 08:10:37;;;;;;;4.95;1.60;;;;;25.80;100746.00;;;;9973052;29;20198;-80
2022/05/11 08:15:43;;;;;;;3.97;1.42;;;;;26.10;100750.00;;;;9977731;29;20261;-81
2022/05/11 08:20:46;;;;;;;2.80;1.60;;;;;26.50;100747.00;;;;9986845;29;20832;-81
2022/05/11 08:25:54;;;;;;;5.93;1.40;;;;;26.60;100744.00;;;;9993154;29;20624;-80
2022/05/11 08:36:23;;;;;;;4.70;1.50;;;;;26.70;100740.00;;;;9991844;29;20244;-81
2022/05/11 08:41:39;;;;;;;4.60;1.60;;;;;26.80;100738.00;;;;9978606;29;20190;-81
2022/05/11 08:47:02;;;;;;;6.53;1.92;;;;;27.20;100736.00;;;;9989529;29;20206;-80
2022/05/11 08:52:10;;;;;;;5.82;2.05;;;;;27.50;100740.00;;;;9994280;29;20202;-81
2022/05/11 08:57:26;;;;;;;3.95;1.65;;;;;27.80;100728.00;;;;9971287;29;20221;-81
2022/05/11 09:02:41;;;;;;;7.32;1.65;;;;;28.20;100730.00;;;;9972833;29;20273;-80
2022/05/11 09:07:49;;;;;;;3.10;1.50;;;;;28.40;100723.00;;;;9977328;29;20210;-80
2022/05/11 09:13:04;;;;;;;6.63;2.30;;;;;28.00;100718.00;;;;9958567;29;20213;-82
2022/05/11 09:18:07;;;;;;;5.35;1.88;;;;;28.30;100716.00;;;;9996885;29;20280;-81
2022/05/11 09:23:08;;;;;;;4.50;1.90;;;;;28.60;100718.00;;;;10013615;29;20581;-82
2022/05/11 09:28:19;;;;;;;5.60;1.77;;;;;28.80;100698.00;;;;9969010;29;20197;-81
2022/05/11 09:33:28;;;;;;;5.95;2.00;;;;;28.70;100699.00;;;;9970497;29;20205;-81
2022/05/11 09:38:37;;;;;;;7.47;2.00;;;;;29.10;100706.00;;;;9993637;29;20788;-79
2022/05/11 09:43:46;;;;;;;4.55;1.92;;;;;29.10;100713.00;;;;9975995;29;20237;-79
2022/05/11 09:49:13;;;;;;;5.68;2.20;;;;;29.60;100697.00;;;;9993131;29;20208;-80
2022/05/11 09:54:18;;;;;;;8.45;2.40;;;;;29.70;100695.00;;;;9980095;29;20213;-80
2022/05/11 09:59:30;;;;;;;5.55;2.10;;;;;29.80;100697.00;;;;9995019;29;20205;-80
2022/05/11 10:04:50;;;;;;;7.47;2.15;;;;;29.80;100682.00;;;;9997075;29;20311;-80
2022/05/11 10:10:00;;;;;;;6.85;2.20;;;;;30.10;100693.00;;;;10008460;29;20572;-79
2022/05/11 10:26:05;;;;;;;6.50;2.28;;;;;30.00;100691.00;;;;10020256;29;20182;-78
2022/05/11 10:31:24;;;;;;;5.57;2.10;;;;;30.10;100680.00;;;;9993042;29;20224;-79
2022/05/11 10:36:37;;;;;;;7.25;2.10;;;;;30.10;100679.00;;;;9989354;29;20217;-79
2022/05/11 10:41:46;;;;;;;7.80;2.30;;;;;29.90;100671.00;;;;9992874;29;20205;-79
2022/05/11 10:46:55;;;;;;;4.85;2.10;;;;;30.70;100664.00;;;;10009589;29;20257;-79
2022/05/11 10:52:15;;;;;;;4.70;2.05;;;;;31.30;100663.00;;;;10001757;29;20258;-79
2022/05/11 10:57:45;;;;;;;8.05;2.20;;;;;31.50;100652.00;;;;9991806;29;20205;-79
2022/05/11 11:03:02;;;;;;;6.22;2.75;;;;;31.80;100646.00;;;;9959064;29;20595;-78
2022/05/11 11:08:34;;;;;;;5.00;2.13;;;;;32.00;100641.00;;;;10004142;29;20206;-79
2022/05/11 11:14:00;;;;;;;6.40;2.47;;;;;31.90;100632.00;;;;9966108;29;20289;-78
2022/05/11 11:19:24;;;;;;;4.20;2.00;;;;;31.70;100626.00;;;;10007481;29;20224;-80
2022/05/11 11:24:28;;;;;;;8.07;2.85;;;;;31.70;100633.00;;;;9977118;29;20198;-78
2022/05/11 11:29:36;;;;;;;4.72;2.30;;;;;31.80;100633.00;;;;9992344;29;20237;-79
2022/05/11 11:35:20;;;;;;;7.20;2.60;;;;;32.00;100626.00;;;;9988520;29;20266;-79
2022/05/11 11:40:24;;;;;;;5.53;2.88;;;;;31.60;100619.00;;;;9961456;29;20206;-79
2022/05/11 11:45:32;;;;;;;6.80;2.40;;;;;31.70;100621.00;;;;9990437;29;20572;-80
2022/05/11 11:50:43;;;;;;;4.68;2.40;;;;;30.90;100608.00;;;;9989790;29;20210;-79
2022/05/11 11:55:45;;;;;;;8.93;2.22;;;;;30.80;100601.00;;;;9994047;29;20247;-79
2022/05/11 12:01:01;;;;;;;7.55;2.05;;;;;31.00;100604.00;;;;9981653;29;20202;-79
2022/05/11 12:16:53;;;;;;;6.45;2.50;;;;;31.50;100592.00;;;;9971669;29;20217;-79
2022/05/11 12:21:59;;;;;;;4.30;2.10;;;;;32.00;100591.00;;;;9968591;29;20200;-79
2022/05/11 12:27:05;;;;;;;6.97;2.42;;;;;32.70;100591.00;;;;9985797;29;20232;-78
2022/05/11 12:32:08;;;;;;;5.70;2.22;;;;;32.50;100577.00;;;;9982357;29;20218;-79
2022/05/11 12:37:31;;;;;;;5.22;2.20;;;;;31.70;100569.00;;;;9970992;29;20221;-79
2022/05/11 12:42:39;;;;;;;5.30;2.10;;;;;30.90;100589.00;;;;9969888;29;20606;-78
2022/05/11 12:47:47;;;;;;;9.15;2.50;;;;;31.30;100572.00;;;;9968702;29;20526;-78
2022/05/11 12:53:17;;;;;;;5.28;2.30;;;;;31.30;100559.00;;;;9977326;29;20648;-78
2022/05/11 12:58:23;;;;;;;5.57;2.05;;;;;30.90;100573.00;;;;10002292;29;20245;-79
2022/05/11 13:03:30;;;;;;;3.65;2.10;;;;;31.20;100574.00;;;;9982165;29;20230;-79
2022/05/11 13:08:42;;;;;;;3.58;2.13;;;;;31.20;100564.00;;;;10002553;29;20194;-79
2022/05/11 13:13:51;;;;;;;5.07;1.95;;;;;31.90;100567.00;;;;10004018;29;20211;-78
2022/05/11 13:19:12;;;;;;;5.30;1.90;;;;;32.40;100579.00;;;;9986984;29;20225;-78
2022/05/11 13:24:14;;;;;;;5.85;1.90;;;;;33.70;100550.00;;;;9982266;29;20205;-78
2022/05/11 13:29:20;;;;;;;5.85;2.00;;;;;35.40;100549.00;;;;9993781;29;20292;-78
2022/05/11 13:34:48;;;;;;;4.90;1.70;;;;;34.30;100551.00;;;;10000166;29;20262;-78
2022/05/11 13:39:50;;;;;;;7.60;2.03;;;;;33.80;100531.00;;;;9980270;29;20214;-79
2022/05/11 13:45:00;;;;;;;3.63;1.88;;;;;36.40;100528.00;;;;9962264;29;20198;-78
2022/05/11 13:50:02;;;;;;;5.15;2.00;;;;;35.80;100544.00;;;;9992292;29;20270;-79
2022/05/11 13:55:06;;;;;;;4.20;2.00;;;;;32.60;100544.00;;;;9999668;29;20704;-78
2022/05/11 14:00:08;;;;;;;6.32;1.83;;;;;33.30;100522.00;;;;9980084;29;20209;-78
2022/05/11 14:05:12;;;;;;;5.13;2.05;;;;;33.70;100518.00;;;;9975414;29;20304;-78
2022/05/11 14:10:14;;;;;;;4.70;2.00;;;;;36.60;100527.00;;;;9993536;29;20201;-78
2022/05/11 14:15:16;;;;;;;3.00;2.10;;;;;32.80;100543.00;;;;9976525;29;20247;-77
2022/05/11 14:20:26;;;;;;;5.05;2.33;;;;;30.90;100535.00;;;;9986609;29;20210;-79
2022/05/11 14:25:36;;;;;;;2.58;2.10;;;;;29.40;100530.00;;;;9961112;29;20193;-79
2022/05/11 14:30:55;;;;;;;5.55;1.92;;;;;32.50;100491.00;;;;9974307;29;20205;-79
2022/05/11 14:35:58;;;;;;;6.32;1.83;;;;;32.40;100496.00;;;;9999963;29;20255;-79
2022/05/11 14:41:00;;;;;;;10.63;2.47;;;;;34.80;100462.00;;;;9985516;29;20528;-79
2022/05/11 14:46:05;;;;;;;5.10;1.88;;;;;36.10;100477.00;;;;9989037;29;20202;-80
2022/05/11 14:51:11;;;;;;;4.95;2.13;;;;;31.90;100488.00;;;;10008644;29;20641;-81
2022/05/11 14:56:17;;;;;;;6.10;1.83;;;;;35.10;100466.00;;;;10013825;29;20296;-79
2022/05/11 15:06:52;;;;;;;2.67;1.38;;;;;33.20;100475.00;;;;9984688;29;20226;-80
2022/05/11 15:17:20;;;;;;;4.15;1.70;;;;;30.30;100463.00;;;;9963657;29;20233;-80
2022/05/11 15:22:43;;;;;;;5.20;1.70;;;;;30.00;100470.00;;;;9978370;29;20232;-80
2022/05/11 15:27:47;;;;;;;4.63;1.55;;;;;29.60;100474.00;;;;9955952;29;20245;-79
2022/05/11 15:32:50;;;;;;;6.78;1.98;;;;;30.70;100461.00;;;;9982104;29;20212;-79
2022/05/11 15:37:52;;;;;;;4.82;1.55;;;;;34.20;100433.00;;;;9993159;29;20213;-79
2022/05/11 15:42:57;;;;;;;6.82;1.90;;;;;30.70;100464.00;;;;9993124;29;20657;-79
2022/05/11 15:48:18;;;;;;;3.80;1.42;;;;;33.40;100446.00;;;;9996154;29;20193;-78
2022/05/11 15:53:24;;;;;;;7.97;1.60;;;;;31.30;100453.00;;;;10008469;29;20198;-78
2022/05/11 15:58:29;;;;;;;6.90;1.50;;;;;29.20;100452.00;;;;9993293;29;20213;-79
2022/05/11 16:03:30;;;;;;;3.63;1.40;;;;;28.30;100445.00;;;;9977684;29;20221;-80
2022/05/11 16:08:32;;;;;;;4.70;1.83;;;;;27.90;100447.00;;;;9993697;29;20595;-79
2022/05/11 16:13:35;;;;;;;5.10;1.38;;;;;28.00;100452.00;;;;9926539;29;20194;-79
2022/05/11 16:23:58;;;;;;;9.48;2.10;;;;;27.20;100458.00;;;;9992652;29;20193;-79
2022/05/11 16:29:00;;;;;;;6.38;1.77;;;;;27.40;100453.00;;;;10030200;29;20727;-80
2022/05/11 16:34:03;;;;;;;9.18;1.83;;;;;26.60;100462.00;;;;9971131;29;20206;-79
2022/05/11 16:39:05;;;;;;;5.57;2.00;;;;;25.80;100463.00;;;;9984152;29;20220;-79
2022/05/11 16:44:07;;;;;;;4.25;1.80;;;;;25.80;100454.00;;;;10014329;29;20197;-79
2022/05/11 16:49:09;;;;;;;9.50;1.75;;;;;25.90;100451.00;;;;9999274;29;20197;-79
2022/05/11 16:54:14;;;;;;;2.90;1.98;;;;;25.80;100452.00;;;;9992887;29;20198;-78
2022/05/11 16:59:22;;;;;;;4.25;1.63;;;;;25.30;100455.00;;;;9998322;29;20225;-78
2022/05/11 17:04:25;;;;;;;3.85;1.70;;;;;25.30;100458.00;;;;9983128;29;20229;-80
2022/05/11 17:09:27;;;;;;;3.03;1.60;;;;;25.40;100447.00;;;;10013158;29;20198;-79
2022/05/11 17:14:29;;;;;;;9.82;2.13;;;;;25.70;100471.00;;;;9999092;29;20864;-79
2022/05/11 17:19:32;;;;;;;8.05;1.33;;;;;25.00;100467.00;;;;9960765;29;20619;-79
2022/05/11 17:24:34;;;;;;;6.35;1.73;;;;;25.00;100457.00;;;;9989693;29;20230;-79
2022/05/11 17:29:36;;;;;;;4.53;1.38;;;;;24.60;100471.00;;;;9982617;29;20206;-78
2022/05/11 17:34:40;;;;;;;3.33;1.30;;;;;24.10;100459.00;;;;9981484;29;20202;-78
2022/05/11 17:39:42;;;;;;;3.35;1.25;;;;;23.80;100466.00;;;;9982673;29;20194;-78
2022/05/11 17:44:44;;;;;;;5.25;1.48;;;;;23.40;100468.00;;;;9967980;29;20566;-79
2022/05/11 17:49:46;;;;;;;5.00;1.50;;;;;23.10;100476.00;;;;9998505;29;20312;-78
2022/05/11 17:54:53;;;;;;;5.63;1.83;;;;;22.80;100467.00;;;;9997833;29;20201;-78
2022/05/11 17:59:54;;;;;;;6.55;1.70;;;;;22.60;100478.00;;;;9997560;29;20206;-78
2022/05/11 18:04:56;;;;;;;1.60;1.17;;;;;22.60;100481.00;;;;9997376;29;20226;-78
2022/05/11 18:09:59;;;;;;;6.70;1.20;;;;;22.50;100496.00;;;;9959416;29;20274;-78
2022/05/11 18:15:07;;;;;;;4.00;1.13;;;;;22.20;100487.00;;;;9930926;29;20328;-79
2022/05/11 18:20:14;;;;;;;5.78;1.45;;;;;21.90;100503.00;;;;9954367;29;20210;-79
2022/05/11 18:25:18;;;;;;;6.55;1.05;;;;;21.60;100503.00;;;;10008032;29;20206;-79
2022/05/11 18:30:22;;;;;;;2.78;1.15;;;;;21.30;100524.00;;;;9995570;29;20213;-80
2022/05/11 18:35:23;;;;;;;3.05;0.98;;;;;21.10;100524.00;;;;9979955;29;20666;-79
2022/05/11 18:40:28;;;;;;;17.85;1.63;;;;;20.90;100539.00;;;;9966263;29;20747;-79
2022/05/11 18:45:31;;;;;;;2.72;1.02;;;;;20.70;100533.00;;;;9994473;29;20202;-79
2022/05/11 18:50:33;;;;;;;4.40;1.23;;;;;20.60;100524.00;;;;9979654;29;20265;-78
2022/05/11 18:55:37;;;;;;;3.33;0.90;;;;;20.50;100525.00;;;;9972905;29;20210;-78
2022/05/11 19:00:39;;;;;;;6.93;1.02;;;;;20.30;100519.00;;;;9952707;29;20217;-77
2022/05/11 19:05:45;;;;;;;2.40;1.13;;;;;20.20;100566.00;;;;10008248;29;20222;-79
2022/05/11 19:10:47;;;;;;;6.22;1.40;;;;;20.20;100507.00;;;;9980827;29;20202;-79
2022/05/11 19:15:49;;;;;;;3.13;0.98;;;;;20.10;100539.00;;;;9957359;29;20241;-79
2022/05/11 19:20:51;;;;;;;3.58;1.08;;;;;20.00;100551.00;;;;9974534;29;20253;-79
2022/05/11 19:25:57;;;;;;;2.47;1.30;;;;;20.00;100558.00;;;;10008807;29;20198;-79
2022/05/11 19:31:06;;;;;;;4.22;1.27;;;;;20.00;100551.00;;;;10008876;29;20209;-79
2022/05/11 19:36:11;;;;;;;6.57;1.52;;;;;19.90;100583.00;;;;9993209;29;20218;-79
2022/05/11 19:41:14;;;;;;;2.75;1.33;;;;;19.80;100582.00;;;;9993242;29;20228;-79
2022/05/11 19:46:18;;;;;;;4.72;1.30;;;;;19.80;100602.00;;;;9977129;29;20249;-79
2022/05/11 19:51:21;;;;;;;8.80;1.25;;;;;19.80;100593.00;;;;9992240;29;20301;-79
2022/05/11 19:56:23;;;;;;;5.32;1.35;;;;;19.70;100596.00;;;;9977923;29;20221;-79
2022/05/11 20:01:25;;;;;;;5.53;1.10;;;;;19.70;100607.00;;;;9985482;29;20214;-79
2022/05/11 20:06:27;;;;;;;3.63;1.20;;;;;19.60;100606.00;;;;10005467;29;20259;-79
2022/05/11 20:11:32;;;;;;;3.10;1.10;;;;;19.10;100622.00;;;;9976833;29;20200;-78
2022/05/11 20:16:34;;;;;;;3.55;1.60;;;;;18.90;100616.00;;;;9991453;29;20262;-78
2022/05/11 20:21:36;;;;;;;4.38;1.23;;;;;18.60;100630.00;;;;9990505;29;20273;-79
2022/05/11 20:26:39;;;;;;;5.53;2.05;;;;;18.60;100640.00;;;;9991236;29;20246;-78
2022/05/11 20:37:04;;;;;;;4.72;1.80;;;;;18.70;100646.00;;;;9968575;29;20253;-78
2022/05/11 20:42:06;;;;;;;11.07;2.22;;;;;18.80;100654.00;;;;9954629;29;20235;-78
2022/05/11 20:47:08;;;;;;;5.07;1.40;;;;;18.80;100668.00;;;;9968844;29;20202;-80
2022/05/11 20:52:10;;;;;;;4.07;1.45;;;;;18.80;100691.00;;;;10005921;29;20206;-78
2022/05/11 20:57:13;;;;;;;4.82;1.23;;;;;18.80;100701.00;;;;9976560;29;20853;-79
2022/05/11 21:02:15;;;;;;;3.65;1.95;;;;;18.80;100712.00;;;;9977153;29;20235;-80
2022/05/11 21:07:17;;;;;;;4.68;1.42;;;;;18.50;100727.00;;;;10007759;29;20230;-78
2022/05/11 21:12:19;;;;;;;3.90;1.38;;;;;18.30;100731.00;;;;9980863;29;20201;-80
2022/05/11 21:17:21;;;;;;;6.50;1.92;;;;;18.20;100712.00;;;;9997037;29;20210;-79
2022/05/11 21:22:23;;;;;;;9.48;1.80;;;;;18.20;100718.00;;;;9998374;29;20583;-80
2022/05/11 21:27:25;;;;;;;6.18;1.55;;;;;18.10;100723.00;;;;9968174;29;20603;-80
2022/05/11 21:32:27;;;;;;;4.32;1.17;;;;;17.90;100735.00;;;;9983494;29;20209;-78
2022/05/11 21:37:29;;;;;;;4.78;1.23;;;;;17.80;100746.00;;;;9982826;29;20213;-79
2022/05/11 21:42:31;;;;;;;3.40;0.93;;;;;17.60;100741.00;;;;9997501;29;20210;-80
2022/05/11 21:47:33;;;;;;;6.57;1.33;;;;;17.50;100726.00;;;;9993917;29;20225;-79
2022/05/11 21:52:35;;;;;;;6.07;1.30;;;;;17.40;100750.00;;;;9982504;29;20202;-79
2022/05/11 21:57:46;;;;;;;4.10;1.00;;;;;17.20;100760.00;;;;9981325;29;20218;-80
2022/05/11 22:02:48;;;;;;;4.13;1.10;;;;;17.10;100766.00;;;;9972872;29;20372;-79
2022/05/11 22:07:51;;;;;;;3.43;1.33;;;;;17.10;100799.00;;;;9981490;29;20213;-79
2022/05/11 22:12:53;;;;;;;4.93;1.10;;;;;17.10;100815.00;;;;9987720;29;20209;-78
2022/05/11 22:17:54;;;;;;;2.63;1.10;;;;;17.10;100828.00;;;;9980291;29;20214;-79
2022/05/11 22:22:59;;;;;;;3.07;0.90;;;;;17.00;100839.00;;;;9980165;29;20235;-78
2022/05/11 22:28:03;;;;;;;2.40;0.80;;;;;17.00;100847.00;;;;9980781;29;20677;-79
2022/05/11 22:33:07;;;;;;;2.37;1.00;;;;;16.90;100864.00;;;;9974586;29;20201;-79
2022/05/11 22:38:09;;;;;;;3.33;1.00;;;;;16.80;100866.00;;;;9996198;29;20244;-79
2022/05/11 22:43:12;;;;;;;2.53;0.80;;;;;16.60;100873.00;;;;9980666;29;20634;-80
2022/05/11 22:48:14;;;;;;;2.43;1.10;;;;;16.50;100875.00;;;;10009534;29;20266;-79
2022/05/11 22:53:16;;;;;;;5.63;1.80;;;;;16.30;100878.00;;;;9994992;29;20623;-79
2022/05/11 22:58:18;;;;;;;3.57;1.43;;;;;16.10;100902.00;;;;9979805;29;20213;-79
2022/05/11 23:03:21;;;;;;;3.03;1.93;;;;;16.00;100906.00;;;;9979137;29;20225;-78
2022/05/11 23:08:23;;;;;;;5.23;1.60;;;;;16.00;100905.00;;;;9966374;29;20198;-79
2022/05/11 23:13:25;;;;;;;4.87;1.73;;;;;16.00;100918.00;;;;9979547;29;20202;-78
2022/05/11 23:18:28;;;;;;;4.63;2.00;;;;;15.90;100902.00;;;;9994783;29;20218;-78
2022/05/11 23:23:30;;;;;;;6.20;2.40;;;;;15.70;100936.00;;;;9952748;29;20213;-78
2022/05/11 23:28:32;;;;;;;4.90;2.47;;;;;15.70;100941.00;;;;9943316;29;20209;-78
2022/05/11 23:33:35;;;;;;;3.93;2.63;;;;;15.50;100936.00;;;;9989974;29;20684;-77
2022/05/11 23:38:37;;;;;;;4.30;2.63;;;;;15.30;100967.00;;;;9993336;29;20221;-80
2022/05/11 23:43:39;;;;;;;5.83;3.13;;;;;15.20;100970.00;;;;9993937;29;20293;-78
2022/05/11 23:48:41;;;;;;;6.33;3.60;;;;;15.00;100978.00;;;;9978405;29;20197;-79
2022/05/11 23:53:43;;;;;;;7.70;3.50;;;;;14.80;100988.00;;;;10001139;29;20215;-79
